createdAt,value
2018-12-27T00:00:09.439Z,21.60
2018-12-27T00:01:09.434Z,22.40
2018-12-27T00:02:09.419Z,23.00
2018-12-27T00:03:09.431Z,21.90
2018-12-27T00:04:09.400Z,21.70
2018-12-27T00:05:09.383Z,21.00
2018-12-27T00:06:09.370Z,21.90
2018-12-27T00:07:09.362Z,21.60
2018-12-27T00:08:09.389Z,22.60
2018-12-27T00:09:09.351Z,22.30
2018-12-27T00:10:09.329Z,22.70
2018-12-27T00:11:09.368Z,22.00
2018-12-27T00:12:09.305Z,22.30
2018-12-27T00:13:09.294Z,22.30
2018-12-27T00:14:09.286Z,22.30
2018-12-27T00:15:09.271Z,23.50
2018-12-27T00:16:09.303Z,22.60
2018-12-27T00:17:09.248Z,24.30
2018-12-27T00:18:09.240Z,23.20
2018-12-27T00:19:09.228Z,23.00
2018-12-27T00:20:09.218Z,22.40
2018-12-27T00:21:09.230Z,22.20
2018-12-27T00:22:09.197Z,22.60
2018-12-27T00:23:09.182Z,23.50
2018-12-27T00:24:09.171Z,23.70
2018-12-27T00:25:09.188Z,22.40
2018-12-27T00:26:09.165Z,23.50
2018-12-27T00:27:09.137Z,23.50
2018-12-27T00:28:09.151Z,24.20
2018-12-27T00:29:09.118Z,23.40
2018-12-27T00:30:09.104Z,23.00
2018-12-27T00:31:09.098Z,22.40
2018-12-27T00:32:09.103Z,22.50
2018-12-27T00:33:09.076Z,23.80
2018-12-27T00:34:09.060Z,24.20
2018-12-27T00:35:09.055Z,23.20
2018-12-27T00:36:09.043Z,23.00
2018-12-27T00:37:09.053Z,23.20
2018-12-27T00:38:09.032Z,23.30
2018-12-27T00:39:09.002Z,23.60
2018-12-27T00:40:08.995Z,22.50
2018-12-27T00:41:08.981Z,23.80
2018-12-27T00:42:09.004Z,22.20
2018-12-27T00:43:08.970Z,23.00
2018-12-27T00:44:08.947Z,22.90
2018-12-27T00:45:08.939Z,22.30
2018-12-27T00:46:08.940Z,23.30
2018-12-27T00:47:08.929Z,22.30
2018-12-27T00:48:08.906Z,23.30
2018-12-27T00:49:08.902Z,22.10
2018-12-27T00:50:08.878Z,22.40
2018-12-27T00:51:08.892Z,23.20
2018-12-27T00:52:08.857Z,22.00
2018-12-27T00:53:08.850Z,22.20
2018-12-27T00:54:08.846Z,23.80
2018-12-27T00:55:08.856Z,21.40
2018-12-27T00:56:08.814Z,22.50
2018-12-27T00:57:08.809Z,21.60
2018-12-27T00:58:08.797Z,21.80
2018-12-27T00:59:08.806Z,21.50
2018-12-27T01:00:08.908Z,22.10
2018-12-27T01:01:08.793Z,22.30
2018-12-27T01:02:08.744Z,22.50
2018-12-27T01:03:11.382Z,22.60
2018-12-27T01:04:08.723Z,21.70
2018-12-27T01:05:08.715Z,22.10
2018-12-27T01:06:08.707Z,22.30
2018-12-27T01:07:08.727Z,21.80
2018-12-27T01:08:08.678Z,22.50
2018-12-27T01:09:08.669Z,22.20
2018-12-27T01:10:08.661Z,23.30
2018-12-27T01:11:08.647Z,22.10
2018-12-27T01:12:08.657Z,22.20
2018-12-27T01:13:08.623Z,22.10
2018-12-27T01:14:08.613Z,21.00
2018-12-27T01:15:08.616Z,22.10
2018-12-27T01:16:08.591Z,21.70
2018-12-27T01:17:08.604Z,21.70
2018-12-27T01:18:08.582Z,22.20
2018-12-27T01:19:08.560Z,22.50
2018-12-27T01:20:08.552Z,23.10
2018-12-27T01:21:08.531Z,21.20
2018-12-27T01:22:08.542Z,22.80
2018-12-27T01:23:08.545Z,22.00
2018-12-27T01:24:08.517Z,22.60
2018-12-27T01:25:08.505Z,22.80
2018-12-27T01:26:08.476Z,22.40
2018-12-27T01:27:08.471Z,22.70
2018-12-27T01:28:08.479Z,21.20
2018-12-27T01:29:08.444Z,22.60
2018-12-27T01:30:08.429Z,22.10
2018-12-27T01:31:08.443Z,22.60
2018-12-27T01:32:08.412Z,21.60
2018-12-27T01:33:08.604Z,22.50
2018-12-27T01:34:08.388Z,22.90
2018-12-27T01:35:08.382Z,21.70
2018-12-27T01:36:08.369Z,23.00
2018-12-27T01:37:08.353Z,22.00
2018-12-27T01:38:08.372Z,21.50
2018-12-27T01:39:08.330Z,22.20
2018-12-27T01:40:08.321Z,21.80
2018-12-27T01:41:08.321Z,22.30
2018-12-27T01:42:08.298Z,21.80
2018-12-27T01:43:08.317Z,21.50
2018-12-27T01:44:08.273Z,22.10
2018-12-27T01:45:08.265Z,22.90
2018-12-27T01:46:08.262Z,23.00
2018-12-27T01:47:08.258Z,22.40
2018-12-27T01:48:08.260Z,22.90
2018-12-27T01:49:08.224Z,23.00
2018-12-27T01:50:08.226Z,22.40
2018-12-27T01:51:08.227Z,21.60
2018-12-27T01:52:08.204Z,22.10
2018-12-27T01:53:08.177Z,21.30
2018-12-27T01:54:08.162Z,22.00
2018-12-27T01:55:08.186Z,22.00
2018-12-27T01:56:08.149Z,21.00
2018-12-27T01:57:08.131Z,20.90
2018-12-27T01:58:08.131Z,21.30
2018-12-27T01:59:08.107Z,20.70
2018-12-27T02:00:08.122Z,20.70
2018-12-27T02:01:08.086Z,20.70
2018-12-27T02:02:08.074Z,20.90
2018-12-27T02:03:08.064Z,20.70
2018-12-27T02:04:08.067Z,19.90
2018-12-27T02:05:08.077Z,20.40
2018-12-27T02:06:08.032Z,21.40
2018-12-27T02:07:08.018Z,20.40
2018-12-27T02:08:08.008Z,20.40
2018-12-27T02:09:08.096Z,21.20
2018-12-27T02:10:08.006Z,21.00
2018-12-27T02:11:07.973Z,20.50
2018-12-27T02:12:07.967Z,21.20
2018-12-27T02:13:07.952Z,21.30
2018-12-27T02:14:07.951Z,21.00
2018-12-27T02:15:07.951Z,20.60
2018-12-27T02:16:07.917Z,21.40
2018-12-27T02:17:07.958Z,20.20
2018-12-27T02:18:07.896Z,20.60
2018-12-27T02:19:07.891Z,21.70
2018-12-27T02:20:07.878Z,20.70
2018-12-27T02:21:07.886Z,21.20
2018-12-27T02:22:07.898Z,21.30
2018-12-27T02:23:07.840Z,21.40
2018-12-27T02:24:07.855Z,20.40
2018-12-27T02:25:07.819Z,20.50
2018-12-27T02:26:07.805Z,20.90
2018-12-27T02:27:07.827Z,21.90
2018-12-27T02:28:07.787Z,21.40
2018-12-27T02:29:07.770Z,21.20
2018-12-27T02:30:07.760Z,21.10
2018-12-27T02:31:07.756Z,20.90
2018-12-27T02:32:07.773Z,21.10
2018-12-27T02:33:07.733Z,20.80
2018-12-27T02:34:07.717Z,21.40
2018-12-27T02:35:07.703Z,20.80
2018-12-27T02:36:07.700Z,20.40
2018-12-27T02:37:07.714Z,21.90
2018-12-27T02:38:07.675Z,21.20
2018-12-27T02:39:07.661Z,22.00
2018-12-27T02:40:07.645Z,20.40
2018-12-27T02:41:07.644Z,20.00
2018-12-27T02:42:07.687Z,21.10
2018-12-27T02:43:07.668Z,20.80
2018-12-27T02:44:07.606Z,21.40
2018-12-27T02:45:07.603Z,21.40
2018-12-27T02:46:07.591Z,21.20
2018-12-27T02:47:07.570Z,22.00
2018-12-27T02:48:07.579Z,21.50
2018-12-27T02:49:07.549Z,21.60
2018-12-27T02:50:07.582Z,21.30
2018-12-27T02:51:07.535Z,22.20
2018-12-27T02:52:07.517Z,21.20
2018-12-27T02:53:07.504Z,21.00
2018-12-27T02:54:07.493Z,20.60
2018-12-27T02:55:07.516Z,20.80
2018-12-27T02:56:07.482Z,21.80
2018-12-27T02:57:07.467Z,21.20
2018-12-27T02:58:07.449Z,22.50
2018-12-27T02:59:07.469Z,21.40
2018-12-27T03:00:07.433Z,22.70
2018-12-27T03:01:07.416Z,22.30
2018-12-27T03:02:07.402Z,21.90
2018-12-27T03:03:07.393Z,21.70
2018-12-27T03:04:07.416Z,22.40
2018-12-27T03:05:07.368Z,21.80
2018-12-27T03:06:07.360Z,21.40
2018-12-27T03:07:07.357Z,21.70
2018-12-27T03:08:07.340Z,20.70
2018-12-27T03:09:07.377Z,21.40
2018-12-27T03:10:07.344Z,21.60
2018-12-27T03:11:07.303Z,22.30
2018-12-27T03:12:07.289Z,21.30
2018-12-27T03:13:07.289Z,21.60
2018-12-27T03:14:07.272Z,21.40
2018-12-27T03:15:07.299Z,22.00
2018-12-27T03:16:07.247Z,21.30
2018-12-27T03:17:07.237Z,21.50
2018-12-27T03:18:07.228Z,20.20
2018-12-27T03:19:07.238Z,21.10
2018-12-27T03:20:07.242Z,20.90
2018-12-27T03:21:07.191Z,20.40
2018-12-27T03:22:07.184Z,21.00
2018-12-27T03:23:07.170Z,21.10
2018-12-27T03:24:07.165Z,21.60
2018-12-27T03:25:07.191Z,21.40
2018-12-27T03:26:07.133Z,20.50
2018-12-27T03:27:07.123Z,20.70
2018-12-27T03:28:07.117Z,20.30
2018-12-27T03:29:07.099Z,20.30
2018-12-27T03:30:07.113Z,19.90
2018-12-27T03:31:07.082Z,19.50
2018-12-27T03:32:07.080Z,19.50
2018-12-27T03:33:07.085Z,20.00
2018-12-27T03:34:07.045Z,20.20
2018-12-27T03:35:07.033Z,20.60
2018-12-27T03:36:07.031Z,20.90
2018-12-27T03:37:07.051Z,19.70
2018-12-27T03:38:07.023Z,20.50
2018-12-27T03:39:06.990Z,20.90
2018-12-27T03:40:06.980Z,20.10
2018-12-27T03:41:06.976Z,20.70
2018-12-27T03:42:06.978Z,20.80
2018-12-27T03:43:06.943Z,19.90
2018-12-27T03:44:06.937Z,21.00
2018-12-27T03:45:06.930Z,20.30
2018-12-27T03:46:06.932Z,19.90
2018-12-27T03:47:06.912Z,19.50
2018-12-27T03:48:06.888Z,20.40
2018-12-27T03:49:06.878Z,20.60
2018-12-27T03:50:06.866Z,19.50
2018-12-27T03:51:06.868Z,20.50
2018-12-27T03:52:06.881Z,20.10
2018-12-27T03:53:06.855Z,21.90
2018-12-27T03:54:06.820Z,20.50
2018-12-27T03:55:06.809Z,20.00
2018-12-27T03:56:06.797Z,20.70
2018-12-27T03:57:06.828Z,20.50
2018-12-27T03:58:06.780Z,20.30
2018-12-27T03:59:06.779Z,20.60
2018-12-27T04:00:06.757Z,20.70
2018-12-27T04:01:06.746Z,20.80
2018-12-27T04:02:06.749Z,20.50
2018-12-27T04:03:06.722Z,21.10
2018-12-27T04:04:06.713Z,19.50
2018-12-27T04:05:06.715Z,20.30
2018-12-27T04:06:06.687Z,19.30
2018-12-27T04:07:06.703Z,20.50
2018-12-27T04:08:06.664Z,21.10
2018-12-27T04:09:06.679Z,19.60
2018-12-27T04:10:06.665Z,20.70
2018-12-27T04:11:06.647Z,21.00
2018-12-27T04:12:06.665Z,19.40
2018-12-27T04:13:06.613Z,20.40
2018-12-27T04:14:06.602Z,19.90
2018-12-27T04:15:06.592Z,20.10
2018-12-27T04:16:06.586Z,21.30
2018-12-27T04:17:06.591Z,20.30
2018-12-27T04:18:06.593Z,20.50
2018-12-27T04:19:06.567Z,19.10
2018-12-27T04:20:06.532Z,19.90
2018-12-27T04:21:06.546Z,19.40
2018-12-27T04:22:06.520Z,19.30
2018-12-27T04:23:06.528Z,18.80
2018-12-27T04:24:06.490Z,19.70
2018-12-27T04:25:06.477Z,19.70
2018-12-27T04:26:06.500Z,20.60
2018-12-27T04:27:06.467Z,19.10
2018-12-27T04:28:06.456Z,18.40
2018-12-27T04:29:06.463Z,20.10
2018-12-27T04:30:06.513Z,20.30
2018-12-27T04:31:06.452Z,20.60
2018-12-27T04:32:06.420Z,21.00
2018-12-27T04:33:06.401Z,20.70
2018-12-27T04:34:09.634Z,20.00
2018-12-27T04:35:06.445Z,20.80
2018-12-27T04:36:06.375Z,19.70
2018-12-27T04:37:06.358Z,19.30
2018-12-27T04:38:06.350Z,21.00
2018-12-27T04:39:06.327Z,19.50
2018-12-27T04:40:06.337Z,19.20
2018-12-27T04:41:06.308Z,19.80
2018-12-27T04:42:06.291Z,20.60
2018-12-27T04:43:06.281Z,19.80
2018-12-27T04:44:06.283Z,19.80
2018-12-27T04:45:06.279Z,19.00
2018-12-27T04:46:06.247Z,20.00
2018-12-27T04:47:06.243Z,20.50
2018-12-27T04:48:06.231Z,20.70
2018-12-27T04:49:06.213Z,20.80
2018-12-27T04:50:06.225Z,21.50
2018-12-27T04:51:06.220Z,21.50
2018-12-27T04:52:06.218Z,20.80
2018-12-27T04:53:06.172Z,20.40
2018-12-27T04:54:06.192Z,20.40
2018-12-27T04:55:06.143Z,19.10
2018-12-27T04:56:06.134Z,20.10
2018-12-27T04:57:06.152Z,22.10
2018-12-27T04:58:06.116Z,21.20
2018-12-27T04:59:06.101Z,20.70
2018-12-27T05:00:06.094Z,20.40
2018-12-27T05:01:06.075Z,20.20
2018-12-27T05:02:06.088Z,18.80
2018-12-27T05:03:06.097Z,20.60
2018-12-27T05:04:06.049Z,20.60
2018-12-27T05:05:06.036Z,19.30
2018-12-27T05:06:06.059Z,21.60
2018-12-27T05:07:06.015Z,20.50
2018-12-27T05:08:06.008Z,20.40
2018-12-27T05:09:06.018Z,20.80
2018-12-27T05:10:05.978Z,20.40
2018-12-27T05:11:05.969Z,20.50
2018-12-27T05:12:05.959Z,20.20
2018-12-27T05:13:05.943Z,20.70
2018-12-27T05:14:05.978Z,19.70
2018-12-27T05:15:05.921Z,21.20
2018-12-27T05:16:05.912Z,20.00
2018-12-27T05:17:05.912Z,19.50
2018-12-27T05:18:05.890Z,20.30
2018-12-27T05:19:05.899Z,20.00
2018-12-27T05:20:05.878Z,20.60
2018-12-27T05:21:05.860Z,20.00
2018-12-27T05:22:05.882Z,19.90
2018-12-27T05:23:05.832Z,20.50
2018-12-27T05:24:05.826Z,19.70
2018-12-27T05:25:05.821Z,19.10
2018-12-27T05:26:05.821Z,19.50
2018-12-27T05:27:05.817Z,19.70
2018-12-27T05:28:05.785Z,20.40
2018-12-27T05:29:05.790Z,19.40
2018-12-27T05:30:05.769Z,20.10
2018-12-27T05:31:05.764Z,19.90
2018-12-27T05:32:05.758Z,19.60
2018-12-27T05:33:05.723Z,19.40
2018-12-27T05:34:05.737Z,18.50
2018-12-27T05:35:05.701Z,18.70
2018-12-27T05:36:05.691Z,18.00
2018-12-27T05:37:05.687Z,18.80
2018-12-27T05:38:05.691Z,19.70
2018-12-27T05:39:05.665Z,18.90
2018-12-27T05:40:05.656Z,17.50
2018-12-27T05:41:05.635Z,18.00
2018-12-27T05:42:05.637Z,17.50
2018-12-27T05:43:05.650Z,17.50
2018-12-27T05:44:05.650Z,17.70
2018-12-27T05:45:05.605Z,17.80
2018-12-27T05:46:05.577Z,18.20
2018-12-27T05:47:05.592Z,18.40
2018-12-27T05:48:05.564Z,17.20
2018-12-27T05:49:05.544Z,16.70
2018-12-27T05:50:05.535Z,17.10
2018-12-27T05:51:05.527Z,16.40
2018-12-27T05:52:05.532Z,17.60
2018-12-27T05:53:05.523Z,17.00
2018-12-27T05:54:05.512Z,17.20
2018-12-27T05:55:05.496Z,17.00
2018-12-27T05:56:05.471Z,16.30
2018-12-27T05:57:05.492Z,17.40
2018-12-27T05:58:05.444Z,16.50
2018-12-27T05:59:05.435Z,16.80
2018-12-27T06:00:05.428Z,16.60
2018-12-27T06:01:05.416Z,15.70
2018-12-27T06:02:05.423Z,16.30
2018-12-27T06:03:05.412Z,16.20
2018-12-27T06:04:05.381Z,15.70
2018-12-27T06:05:05.369Z,16.10
2018-12-27T06:06:05.372Z,15.80
2018-12-27T06:07:05.346Z,15.60
2018-12-27T06:08:05.341Z,16.00
2018-12-27T06:09:05.331Z,16.20
2018-12-27T06:10:05.339Z,16.10
2018-12-27T06:11:05.302Z,16.10
2018-12-27T06:12:05.315Z,15.40
2018-12-27T06:13:05.281Z,15.70
2018-12-27T06:14:05.270Z,15.90
2018-12-27T06:15:05.261Z,15.90
2018-12-27T06:16:05.247Z,15.60
2018-12-27T06:17:05.250Z,15.90
2018-12-27T06:18:05.224Z,16.40
2018-12-27T06:19:05.219Z,15.40
2018-12-27T06:20:05.210Z,15.80
2018-12-27T06:21:05.210Z,16.80
2018-12-27T06:22:05.188Z,17.00
2018-12-27T06:23:05.180Z,17.00
2018-12-27T06:24:05.159Z,15.90
2018-12-27T06:25:05.186Z,15.50
2018-12-27T06:26:05.137Z,16.20
2018-12-27T06:27:05.135Z,15.50
2018-12-27T06:28:05.120Z,13.90
2018-12-27T06:29:05.102Z,15.50
2018-12-27T06:30:05.116Z,15.10
2018-12-27T06:31:05.078Z,15.60
2018-12-27T06:32:05.095Z,14.90
2018-12-27T06:33:05.058Z,15.50
2018-12-27T06:34:05.063Z,15.20
2018-12-27T06:35:05.041Z,15.00
2018-12-27T06:36:05.051Z,15.10
2018-12-27T06:37:05.014Z,14.50
2018-12-27T06:38:05.031Z,14.60
2018-12-27T06:39:04.992Z,15.60
2018-12-27T06:40:04.980Z,15.20
2018-12-27T06:41:04.970Z,15.40
2018-12-27T06:42:04.959Z,15.40
2018-12-27T06:43:04.976Z,15.20
2018-12-27T06:44:04.937Z,15.40
2018-12-27T06:45:04.924Z,15.50
2018-12-27T06:46:04.912Z,15.30
2018-12-27T06:47:04.902Z,15.10
2018-12-27T06:48:04.914Z,15.10
2018-12-27T06:49:04.883Z,15.00
2018-12-27T06:50:04.895Z,15.20
2018-12-27T06:51:04.858Z,16.60
2018-12-27T06:52:04.851Z,16.60
2018-12-27T06:53:04.853Z,15.70
2018-12-27T06:54:04.890Z,15.40
2018-12-27T06:55:04.839Z,16.30
2018-12-27T06:56:04.804Z,16.30
2018-12-27T06:57:04.816Z,16.70
2018-12-27T06:58:04.779Z,15.70
2018-12-27T06:59:04.768Z,15.80
2018-12-27T07:00:05.463Z,15.10
2018-12-27T07:01:04.749Z,15.40
2018-12-27T07:02:04.751Z,15.30
2018-12-27T07:03:04.748Z,15.80
2018-12-27T07:04:04.713Z,14.70
2018-12-27T07:05:04.706Z,15.40
2018-12-27T07:06:04.691Z,15.60
2018-12-27T07:07:04.680Z,14.50
2018-12-27T07:08:04.693Z,14.80
2018-12-27T07:09:04.664Z,14.90
2018-12-27T07:10:04.647Z,15.60
2018-12-27T07:11:04.664Z,15.70
2018-12-27T07:12:04.625Z,15.40
2018-12-27T07:13:04.633Z,15.10
2018-12-27T07:14:04.606Z,14.20
2018-12-27T07:15:04.603Z,15.60
2018-12-27T07:16:04.608Z,16.30
2018-12-27T07:17:04.568Z,15.00
2018-12-27T07:18:04.594Z,14.60
2018-12-27T07:19:04.573Z,16.30
2018-12-27T07:20:04.555Z,16.90
2018-12-27T07:21:04.524Z,16.10
2018-12-27T07:22:04.514Z,16.50
2018-12-27T07:23:04.507Z,16.10
2018-12-27T07:24:04.491Z,16.20
2018-12-27T07:25:04.497Z,16.40
2018-12-27T07:26:04.500Z,16.80
2018-12-27T07:27:04.458Z,16.40
2018-12-27T07:28:04.448Z,17.20
2018-12-27T07:29:04.436Z,17.40
2018-12-27T07:30:04.425Z,16.40
2018-12-27T07:31:04.440Z,15.90
2018-12-27T07:32:04.402Z,16.50
2018-12-27T07:33:04.400Z,16.60
2018-12-27T07:34:04.416Z,16.80
2018-12-27T07:35:04.371Z,15.20
2018-12-27T07:36:04.385Z,15.80
2018-12-27T07:37:04.346Z,15.00
2018-12-27T07:38:04.336Z,16.10
2018-12-27T07:39:04.327Z,15.40
2018-12-27T07:40:04.340Z,15.30
2018-12-27T07:41:04.306Z,15.80
2018-12-27T07:42:04.293Z,15.10
2018-12-27T07:43:04.284Z,15.20
2018-12-27T07:44:04.281Z,15.70
2018-12-27T07:45:04.286Z,15.60
2018-12-27T07:46:10.721Z,15.40
2018-12-27T07:47:05.716Z,15.30
2018-12-27T07:48:04.244Z,15.10
2018-12-27T07:49:04.215Z,15.10
2018-12-27T07:50:04.235Z,14.70
2018-12-27T07:51:04.194Z,14.90
2018-12-27T07:52:04.206Z,15.10
2018-12-27T07:53:04.199Z,15.20
2018-12-27T07:54:04.161Z,15.40
2018-12-27T07:55:04.148Z,14.60
2018-12-27T07:56:04.136Z,14.70
2018-12-27T07:57:04.187Z,13.60
2018-12-27T07:58:04.115Z,14.10
2018-12-27T07:59:04.103Z,14.80
2018-12-27T08:00:04.096Z,15.00
2018-12-27T08:01:04.089Z,14.70
2018-12-27T08:02:04.096Z,13.90
2018-12-27T08:03:04.059Z,15.00
2018-12-27T08:04:04.047Z,14.50
2018-12-27T08:05:04.568Z,14.20
2018-12-27T08:06:04.028Z,14.30
2018-12-27T08:07:04.040Z,14.30
2018-12-27T08:08:04.028Z,13.40
2018-12-27T08:09:03.994Z,14.90
2018-12-27T08:10:03.982Z,14.10
2018-12-27T08:11:03.971Z,15.50
2018-12-27T08:12:03.960Z,14.30
2018-12-27T08:13:03.972Z,15.10
2018-12-27T08:14:03.938Z,14.60
2018-12-27T08:15:03.925Z,14.80
2018-12-27T08:16:03.920Z,14.40
2018-12-27T08:17:04.023Z,14.70
2018-12-27T08:18:03.893Z,14.90
2018-12-27T08:19:03.894Z,14.40
2018-12-27T08:20:03.870Z,14.30
2018-12-27T08:21:03.936Z,14.00
2018-12-27T08:22:03.872Z,15.20
2018-12-27T08:23:03.837Z,15.50
2018-12-27T08:24:03.838Z,14.20
2018-12-27T08:25:03.814Z,14.20
2018-12-27T08:26:03.804Z,14.40
2018-12-27T08:27:03.817Z,14.10
2018-12-27T08:28:03.785Z,14.60
2018-12-27T08:29:03.773Z,14.10
2018-12-27T08:30:03.761Z,13.00
2018-12-27T08:31:03.748Z,15.10
2018-12-27T08:32:03.764Z,14.40
2018-12-27T08:33:03.728Z,14.30
2018-12-27T08:34:03.714Z,14.90
2018-12-27T08:35:03.704Z,14.20
2018-12-27T08:36:03.694Z,13.80
2018-12-27T08:37:03.715Z,13.80
2018-12-27T08:38:03.669Z,14.30
2018-12-27T08:39:03.690Z,13.70
2018-12-27T08:40:03.648Z,14.10
2018-12-27T08:41:03.637Z,14.40
2018-12-27T08:42:03.627Z,13.10
2018-12-27T08:43:03.615Z,14.70
2018-12-27T08:44:03.626Z,13.20
2018-12-27T08:45:03.609Z,13.50
2018-12-27T08:46:03.591Z,14.00
2018-12-27T08:47:03.572Z,14.50
2018-12-27T08:48:03.564Z,14.80
2018-12-27T08:49:03.549Z,14.90
2018-12-27T08:50:03.563Z,14.00
2018-12-27T08:51:03.541Z,14.00
2018-12-27T08:52:03.516Z,13.80
2018-12-27T08:53:03.504Z,14.30
2018-12-27T08:54:03.497Z,13.60
2018-12-27T08:55:03.507Z,13.20
2018-12-27T08:56:03.471Z,13.90
2018-12-27T08:57:03.484Z,13.70
2018-12-27T08:58:03.448Z,13.80
2018-12-27T08:59:03.442Z,13.70
2018-12-27T09:00:03.426Z,13.40
2018-12-27T09:01:03.447Z,12.80
2018-12-27T09:02:03.404Z,13.90
2018-12-27T09:03:03.393Z,14.10
2018-12-27T09:04:03.382Z,14.60
2018-12-27T09:05:03.373Z,13.70
2018-12-27T09:06:03.387Z,14.90
2018-12-27T09:07:04.265Z,13.30
2018-12-27T09:08:03.338Z,13.10
2018-12-27T09:09:03.328Z,13.40
2018-12-27T09:10:03.316Z,13.40
2018-12-27T09:11:03.331Z,13.40
2018-12-27T09:12:03.296Z,13.70
2018-12-27T09:13:03.305Z,13.70
2018-12-27T09:14:03.272Z,13.20
2018-12-27T09:15:03.261Z,12.90
2018-12-27T09:16:03.251Z,12.80
2018-12-27T09:17:03.266Z,12.50
2018-12-27T09:18:03.227Z,12.20
2018-12-27T09:19:03.215Z,12.00
2018-12-27T09:20:03.205Z,12.50
2018-12-27T09:21:03.194Z,11.20
2018-12-27T09:22:03.206Z,12.00
2018-12-27T09:23:03.171Z,12.50
2018-12-27T09:24:03.163Z,12.20
2018-12-27T09:25:03.171Z,11.60
2018-12-27T09:26:03.139Z,12.00
2018-12-27T09:27:03.127Z,11.60
2018-12-27T09:28:03.123Z,11.30
2018-12-27T09:29:03.139Z,11.70
2018-12-27T09:30:03.094Z,11.20
2018-12-27T09:31:03.082Z,11.80
2018-12-27T09:32:03.087Z,10.80
2018-12-27T09:33:03.095Z,10.90
2018-12-27T09:34:03.053Z,10.80
2018-12-27T09:35:03.038Z,10.90
2018-12-27T09:36:03.027Z,10.80
2018-12-27T09:37:03.522Z,10.50
2018-12-27T09:38:03.020Z,10.30
2018-12-27T09:39:03.009Z,9.80
2018-12-27T09:40:03.002Z,10.20
2018-12-27T09:41:02.972Z,10.70
2018-12-27T09:42:02.959Z,10.50
2018-12-27T09:43:02.952Z,10.40
2018-12-27T09:44:02.940Z,10.30
2018-12-27T09:45:02.950Z,10.30
2018-12-27T09:46:02.916Z,9.60
2018-12-27T09:47:02.905Z,10.10
2018-12-27T09:48:02.892Z,10.00
2018-12-27T09:49:02.883Z,9.60
2018-12-27T09:50:02.894Z,9.50
2018-12-27T09:51:02.861Z,9.60
2018-12-27T09:52:02.877Z,9.50
2018-12-27T09:53:02.843Z,9.70
2018-12-27T09:54:02.831Z,9.60
2018-12-27T09:55:02.817Z,8.80
2018-12-27T09:56:02.830Z,9.00
2018-12-27T09:57:02.798Z,9.40
2018-12-27T09:58:02.788Z,9.70
2018-12-27T09:59:02.771Z,9.20
2018-12-27T10:00:02.787Z,9.50
2018-12-27T10:01:02.771Z,9.10
2018-12-27T10:02:02.740Z,9.20
2018-12-27T10:03:02.727Z,9.30
2018-12-27T10:04:02.716Z,10.00
2018-12-27T10:05:02.705Z,9.50
2018-12-27T10:06:02.717Z,9.00
2018-12-27T10:07:02.680Z,8.80
2018-12-27T10:08:02.672Z,9.80
2018-12-27T10:09:02.657Z,9.90
2018-12-27T10:10:02.689Z,9.60
2018-12-27T10:11:02.639Z,9.20
2018-12-27T10:12:02.626Z,9.40
2018-12-27T10:13:02.616Z,9.60
2018-12-27T10:14:02.610Z,9.60
2018-12-27T10:15:02.615Z,9.50
2018-12-27T10:16:02.602Z,9.30
2018-12-27T10:17:02.573Z,10.10
2018-12-27T10:18:02.559Z,9.10
2018-12-27T10:19:02.552Z,10.60
2018-12-27T10:20:02.541Z,10.10
2018-12-27T10:21:02.548Z,9.90
2018-12-27T10:22:02.518Z,9.50
2018-12-27T10:23:02.510Z,9.50
2018-12-27T10:24:02.500Z,9.20
2018-12-27T10:25:02.478Z,10.60
2018-12-27T10:26:02.494Z,10.20
2018-12-27T10:27:02.485Z,9.50
2018-12-27T10:28:02.486Z,9.90
2018-12-27T10:29:02.463Z,9.50
2018-12-27T10:30:02.435Z,9.30
2018-12-27T10:31:02.439Z,9.00
2018-12-27T10:32:02.428Z,9.90
2018-12-27T10:33:02.423Z,9.00
2018-12-27T10:34:02.379Z,9.00
2018-12-27T10:35:02.368Z,9.40
2018-12-27T10:36:02.358Z,9.40
2018-12-27T10:37:02.351Z,9.20
2018-12-27T10:38:02.358Z,8.40
2018-12-27T10:39:02.323Z,9.60
2018-12-27T10:40:02.315Z,8.80
2018-12-27T10:41:02.327Z,8.00
2018-12-27T10:42:02.291Z,8.70
2018-12-27T10:43:02.280Z,8.90
2018-12-27T10:44:02.268Z,8.60
2018-12-27T10:45:02.257Z,8.60
2018-12-27T10:46:02.290Z,8.60
2018-12-27T10:47:02.234Z,9.00
2018-12-27T10:48:02.234Z,9.00
2018-12-27T10:49:02.217Z,8.30
2018-12-27T10:50:02.199Z,9.00
2018-12-27T10:51:02.213Z,8.30
2018-12-27T10:52:02.179Z,9.20
2018-12-27T10:53:02.178Z,8.80
2018-12-27T10:54:02.155Z,8.50
2018-12-27T10:55:02.172Z,8.40
2018-12-27T10:56:02.136Z,9.40
2018-12-27T10:57:02.122Z,8.80
2018-12-27T10:58:02.134Z,9.00
2018-12-27T10:59:02.099Z,8.90
2018-12-27T11:00:02.092Z,8.60
2018-12-27T11:01:02.079Z,8.80
2018-12-27T11:02:02.080Z,9.30
2018-12-27T11:03:02.062Z,9.60
2018-12-27T11:04:02.053Z,9.30
2018-12-27T11:05:02.033Z,9.10
2018-12-27T11:06:02.021Z,8.70
2018-12-27T11:07:02.114Z,9.20
2018-12-27T11:08:01.998Z,8.70
2018-12-27T11:09:01.986Z,9.00
2018-12-27T11:10:01.983Z,8.80
2018-12-27T11:11:01.964Z,8.70
2018-12-27T11:12:01.979Z,8.80
2018-12-27T11:13:01.945Z,9.20
2018-12-27T11:14:01.931Z,8.70
2018-12-27T11:15:01.927Z,8.40
2018-12-27T11:16:01.931Z,8.40
2018-12-27T11:17:01.898Z,8.40
2018-12-27T11:18:01.887Z,7.80
2018-12-27T11:19:01.876Z,7.70
2018-12-27T11:20:01.883Z,7.90
2018-12-27T11:21:01.853Z,8.20
2018-12-27T11:22:01.866Z,8.30
2018-12-27T11:23:01.853Z,8.40
2018-12-27T11:24:01.818Z,8.70
2018-12-27T11:25:01.808Z,8.30
2018-12-27T11:26:01.797Z,8.70
2018-12-27T11:27:01.788Z,8.00
2018-12-27T11:28:01.791Z,8.60
2018-12-27T11:29:01.803Z,8.40
2018-12-27T11:30:01.754Z,8.90
2018-12-27T11:31:01.742Z,7.70
2018-12-27T11:32:01.732Z,7.80
2018-12-27T11:33:01.720Z,7.50
2018-12-27T11:34:01.733Z,8.10
2018-12-27T11:35:01.698Z,8.60
2018-12-27T11:36:01.685Z,8.60
2018-12-27T11:37:01.673Z,8.40
2018-12-27T11:38:01.663Z,8.40
2018-12-27T11:39:01.676Z,7.90
2018-12-27T11:40:01.652Z,8.10
2018-12-27T11:41:01.629Z,8.50
2018-12-27T11:42:01.635Z,8.10
2018-12-27T11:43:01.611Z,8.10
2018-12-27T11:44:01.597Z,8.00
2018-12-27T11:45:01.589Z,8.50
2018-12-27T11:46:01.572Z,7.70
2018-12-27T11:47:01.586Z,7.30
2018-12-27T11:48:01.549Z,7.80
2018-12-27T11:49:01.565Z,8.30
2018-12-27T11:50:01.530Z,8.10
2018-12-27T11:51:01.522Z,8.00
2018-12-27T11:52:01.523Z,7.60
2018-12-27T11:53:01.494Z,8.50
2018-12-27T11:54:01.506Z,8.30
2018-12-27T11:55:01.472Z,7.90
2018-12-27T11:56:01.477Z,7.90
2018-12-27T11:57:01.472Z,7.60
2018-12-27T11:58:01.441Z,8.20
2018-12-27T11:59:01.427Z,7.60
2018-12-27T12:00:01.416Z,7.90
2018-12-27T12:01:01.430Z,7.50
2018-12-27T12:02:01.409Z,7.20
2018-12-27T12:03:01.382Z,7.50
2018-12-27T12:04:01.405Z,7.20
2018-12-27T12:05:01.365Z,7.20
2018-12-27T12:06:03.312Z,7.30
2018-12-27T12:07:01.376Z,7.40
2018-12-27T12:08:01.349Z,7.40
2018-12-27T12:09:01.314Z,7.30
2018-12-27T12:10:01.305Z,7.80
2018-12-27T12:11:01.357Z,7.10
2018-12-27T12:12:01.305Z,7.60
2018-12-27T12:13:01.340Z,7.30
2018-12-27T12:14:01.265Z,7.30
2018-12-27T12:15:01.249Z,7.00
2018-12-27T12:16:01.308Z,7.40
2018-12-27T12:17:01.247Z,7.30
2018-12-27T12:18:01.214Z,7.70
2018-12-27T12:19:01.204Z,7.20
2018-12-27T12:20:01.190Z,7.10
2018-12-27T12:21:01.192Z,7.40
2018-12-27T12:22:01.192Z,6.80
2018-12-27T12:23:01.159Z,7.20
2018-12-27T12:24:01.146Z,7.00
2018-12-27T12:25:01.135Z,7.20
2018-12-27T12:26:01.186Z,6.50
2018-12-27T12:27:01.148Z,7.40
2018-12-27T12:28:01.102Z,7.80
2018-12-27T12:29:01.098Z,7.20
2018-12-27T12:30:01.077Z,7.50
2018-12-27T12:31:01.069Z,7.30
2018-12-27T12:32:01.092Z,7.50
2018-12-27T12:33:01.044Z,7.10
2018-12-27T12:34:01.032Z,7.10
2018-12-27T12:35:01.022Z,7.00
2018-12-27T12:36:01.012Z,7.50
2018-12-27T12:37:01.037Z,7.00
2018-12-27T12:38:00.990Z,7.00
2018-12-27T12:39:00.977Z,6.90
2018-12-27T12:40:00.968Z,7.70
2018-12-27T12:41:00.955Z,7.30
2018-12-27T12:42:00.971Z,7.10
2018-12-27T12:43:00.936Z,6.90
2018-12-27T12:44:00.945Z,7.50
2018-12-27T12:45:00.909Z,7.70
2018-12-27T12:46:00.899Z,6.80
2018-12-27T12:47:00.888Z,7.20
2018-12-27T12:48:01.310Z,6.30
2018-12-27T12:49:00.863Z,6.60
2018-12-27T12:50:00.867Z,7.20
2018-12-27T12:51:00.862Z,7.00
2018-12-27T12:52:00.832Z,7.30
2018-12-27T12:53:00.820Z,7.20
2018-12-27T12:54:00.809Z,6.80
2018-12-27T12:55:00.801Z,7.50
2018-12-27T12:56:00.811Z,7.40
2018-12-27T12:57:00.778Z,6.70
2018-12-27T12:58:00.766Z,6.80